Kezdőlap
METAR-TAF:

METAR-TAF

Repülőterek :

Wabush, Újfundland és Labrador, Kanada

földrajzi szélesség: 52-56N, földrajzi hosszúság: 066-52W, magasság: 551 m

Jelenlegi meteorológiai megfigyelések

A jelentés 14 perccel ezelõtt készült, 00:00 UTC
Szélcsend
Hőmérséklet -6°C
Páratartalom 62%
Légköri nyomás 1015 hPa
Látótávolság: 24.1 km
Szakadozott felhőzet 11000 lábon
Borult 13000 lábon

METAR: CYWK 190000Z 00000KT 15SM BKN110 OVC130 M06/M12 A2996 RMK AC6AC2 SLP187

Idő: 20:14 (00:14 UTC)

Előrejelzés

A jelentés 4 órával és 36 perccel ezelõtt készült, 19:38 UTC
Az előrejelzés 18-én 20 óra UTC és 19-én 08 óra UTC között érvényes
Délnyugati szél 10 kt
Látótávolság: 10 km
Szakadozott felhőzet 10000 lábon
19-én 0000 órától UTC szerint
Különbözõ irányokból fújó szél 3 kt
Látótávolság: 10 km
Szakadozott felhőzet 16000 lábon

TAF: CYWK 181938Z 1820/1908 23010KT P6SM BKN100 FM190000 VRB03KT P6SM BKN160 RMK NXT FCST BY 190200Z

Meteorológiai megfigyelések és előrejelzések több, mint 4000 repülőtéren (METAR és TAF jelentéseket).

A térképen piros és sárga pontok jelzik az elérhető meteorológiai állomásokat.

Mozgassa az egeret a pont fölött, hogy megjelenjen az állomás neve.

Azután kattintson az időjárási megfigyelések és előrejelzések megtekintéséhez.

A térkép megváltoztatása: kattintson a fekete keresztel jelölt zöld gombra ráközelítéshez, a vonallal jelölt zöld gombra távolításhoz, vagy a zöld nyilakra a szomszédos térképek eléréséhez.


METAR-TAF: